sensor_id;sensor_type;location;lat;lon;timestamp;P1;P2;P0
39955;PMS5003;25631;51.516;-0.470;2023-12-20T00:01:42;13;11;
39955;PMS5003;25631;51.516;-0.470;2023-12-20T00:04:18;15;13;
39955;PMS5003;25631;51.516;-0.470;2023-12-20T00:06:54;14;12;
39955;PMS5003;25631;51.516;-0.470;2023-12-20T00:09:31;14;13;
39955;PMS5003;25631;51.516;-0.470;2023-12-20T00:12:08;14;12;
39955;PMS5003;25631;51.516;-0.470;2023-12-20T00:14:44;14;12;
39955;PMS5003;25631;51.516;-0.470;2023-12-20T00:17:20;16;13;
39955;PMS5003;25631;51.516;-0.470;2023-12-20T00:19:57;24;20;
39955;PMS5003;25631;51.516;-0.470;2023-12-20T00:22:33;24;21;
39955;PMS5003;25631;51.516;-0.470;2023-12-20T00:25:10;20;19;
39955;PMS5003;25631;51.516;-0.470;2023-12-20T00:27:46;22;20;
39955;PMS5003;25631;51.516;-0.470;2023-12-20T00:30:22;20;19;
39955;PMS5003;25631;51.516;-0.470;2023-12-20T00:32:59;20;18;
39955;PMS5003;25631;51.516;-0.470;2023-12-20T00:35:35;24;22;
39955;PMS5003;25631;51.516;-0.470;2023-12-20T00:38:12;24;22;
39955;PMS5003;25631;51.516;-0.470;2023-12-20T00:40:48;17;16;
39955;PMS5003;25631;51.516;-0.470;2023-12-20T00:43:25;17;16;
39955;PMS5003;25631;51.516;-0.470;2023-12-20T00:46:02;22;20;
39955;PMS5003;25631;51.516;-0.470;2023-12-20T00:48:38;25;22;
39955;PMS5003;25631;51.516;-0.470;2023-12-20T00:51:14;25;21;
39955;PMS5003;25631;51.516;-0.470;2023-12-20T00:53:51;17;16;
39955;PMS5003;25631;51.516;-0.470;2023-12-20T00:56:27;17;17;
39955;PMS5003;25631;51.516;-0.470;2023-12-20T00:59:04;17;16;
39955;PMS5003;25631;51.516;-0.470;2023-12-20T01:01:40;18;17;
39955;PMS5003;25631;51.516;-0.470;2023-12-20T01:04:16;17;16;
39955;PMS5003;25631;51.516;-0.470;2023-12-20T01:06:53;36;34;
39955;PMS5003;25631;51.516;-0.470;2023-12-20T01:09:29;38;35;
39955;PMS5003;25631;51.516;-0.470;2023-12-20T01:12:06;35;27;
39955;PMS5003;25631;51.516;-0.470;2023-12-20T01:14:43;40;36;
39955;PMS5003;25631;51.516;-0.470;2023-12-20T01:17:19;40;36;
39955;PMS5003;25631;51.516;-0.470;2023-12-20T01:19:55;49;45;
39955;PMS5003;25631;51.516;-0.470;2023-12-20T01:22:32;49;44;
39955;PMS5003;25631;51.516;-0.470;2023-12-20T01:25:08;45;44;
39955;PMS5003;25631;51.516;-0.470;2023-12-20T01:27:44;44;42;
39955;PMS5003;25631;51.516;-0.470;2023-12-20T01:30:21;41;39;
39955;PMS5003;25631;51.516;-0.470;2023-12-20T01:32:59;41;40;
39955;PMS5003;25631;51.516;-0.470;2023-12-20T01:35:36;33;31;
39955;PMS5003;25631;51.516;-0.470;2023-12-20T01:38:12;27;24;
39955;PMS5003;25631;51.516;-0.470;2023-12-20T01:40:49;15;14;
39955;PMS5003;25631;51.516;-0.470;2023-12-20T01:43:25;22;18;
39955;PMS5003;25631;51.516;-0.470;2023-12-20T01:46:02;29;26;
39955;PMS5003;25631;51.516;-0.470;2023-12-20T01:48:39;17;16;
39955;PMS5003;25631;51.516;-0.470;2023-12-20T01:51:15;18;16;
39955;PMS5003;25631;51.516;-0.470;2023-12-20T01:53:52;36;32;
39955;PMS5003;25631;51.516;-0.470;2023-12-20T01:56:30;39;33;
39955;PMS5003;25631;51.516;-0.470;2023-12-20T01:59:08;38;32;
39955;PMS5003;25631;51.516;-0.470;2023-12-20T02:01:45;17;15;
39955;PMS5003;25631;51.516;-0.470;2023-12-20T02:04:21;15;13;
39955;PMS5003;25631;51.516;-0.470;2023-12-20T02:06:58;16;14;
39955;PMS5003;25631;51.516;-0.470;2023-12-20T02:09:35;13;12;
39955;PMS5003;25631;51.516;-0.470;2023-12-20T02:12:12;13;12;
39955;PMS5003;25631;51.516;-0.470;2023-12-20T02:14:48;20;19;
39955;PMS5003;25631;51.516;-0.470;2023-12-20T02:17:25;20;20;
39955;PMS5003;25631;51.516;-0.470;2023-12-20T02:20:03;21;20;
39955;PMS5003;25631;51.516;-0.470;2023-12-20T02:22:40;14;13;
39955;PMS5003;25631;51.516;-0.470;2023-12-20T02:25:16;13;12;
39955;PMS5003;25631;51.516;-0.470;2023-12-20T02:27:53;12;11;
39955;PMS5003;25631;51.516;-0.470;2023-12-20T02:30:30;12;10;
39955;PMS5003;25631;51.516;-0.470;2023-12-20T02:33:07;12;11;
39955;PMS5003;25631;51.516;-0.470;2023-12-20T02:35:46;13;12;
39955;PMS5003;25631;51.516;-0.470;2023-12-20T02:38:22;13;12;
39955;PMS5003;25631;51.516;-0.470;2023-12-20T02:40:59;14;12;
39955;PMS5003;25631;51.516;-0.470;2023-12-20T02:43:35;13;12;
39955;PMS5003;25631;51.516;-0.470;2023-12-20T02:46:11;12;11;
39955;PMS5003;25631;51.516;-0.470;2023-12-20T02:48:50;9;8;
39955;PMS5003;25631;51.516;-0.470;2023-12-20T02:51:26;10;9;
39955;PMS5003;25631;51.516;-0.470;2023-12-20T02:54:02;10;10;
39955;PMS5003;25631;51.516;-0.470;2023-12-20T02:56:39;16;12;
39955;PMS5003;25631;51.516;-0.470;2023-12-20T02:59:15;15;12;
39955;PMS5003;25631;51.516;-0.470;2023-12-20T03:01:52;14;10;
39955;PMS5003;25631;51.516;-0.470;2023-12-20T03:04:28;12;9;
39955;PMS5003;25631;51.516;-0.470;2023-12-20T03:07:04;12;10;
39955;PMS5003;25631;51.516;-0.470;2023-12-20T03:09:41;10;9;
39955;PMS5003;25631;51.516;-0.470;2023-12-20T03:12:17;10;9;
39955;PMS5003;25631;51.516;-0.470;2023-12-20T03:14:53;8;8;
39955;PMS5003;25631;51.516;-0.470;2023-12-20T03:17:30;8;8;
39955;PMS5003;25631;51.516;-0.470;2023-12-20T03:20:07;11;8;
39955;PMS5003;25631;51.516;-0.470;2023-12-20T03:22:44;8;8;
39955;PMS5003;25631;51.516;-0.470;2023-12-20T03:25:20;9;9;
39955;PMS5003;25631;51.516;-0.470;2023-12-20T03:27:57;15;11;
39955;PMS5003;25631;51.516;-0.470;2023-12-20T03:30:33;15;11;
39955;PMS5003;25631;51.516;-0.470;2023-12-20T03:33:09;13;9;
39955;PMS5003;25631;51.516;-0.470;2023-12-20T03:35:46;8;8;
39955;PMS5003;25631;51.516;-0.470;2023-12-20T03:38:22;7;7;
39955;PMS5003;25631;51.516;-0.470;2023-12-20T03:40:58;7;7;
39955;PMS5003;25631;51.516;-0.470;2023-12-20T03:43:35;16;12;
39955;PMS5003;25631;51.516;-0.470;2023-12-20T03:46:11;14;11;
39955;PMS5003;25631;51.516;-0.470;2023-12-20T03:48:47;10;9;
39955;PMS5003;25631;51.516;-0.470;2023-12-20T03:51:24;10;9;
39955;PMS5003;25631;51.516;-0.470;2023-12-20T03:54:00;9;9;
39955;PMS5003;25631;51.516;-0.470;2023-12-20T03:56:36;18;15;
39955;PMS5003;25631;51.516;-0.470;2023-12-20T03:59:13;21;16;
39955;PMS5003;25631;51.516;-0.470;2023-12-20T04:01:49;10;10;
39955;PMS5003;25631;51.516;-0.470;2023-12-20T04:04:26;12;11;
39955;PMS5003;25631;51.516;-0.470;2023-12-20T04:07:02;14;13;
39955;PMS5003;25631;51.516;-0.470;2023-12-20T04:09:40;10;8;
39955;PMS5003;25631;51.516;-0.470;2023-12-20T04:12:16;11;9;
39955;PMS5003;25631;51.516;-0.470;2023-12-20T04:14:52;10;9;
39955;PMS5003;25631;51.516;-0.470;2023-12-20T04:17:29;16;13;
39955;PMS5003;25631;51.516;-0.470;2023-12-20T04:20:06;15;12;
39955;PMS5003;25631;51.516;-0.470;2023-12-20T04:22:43;19;11;
39955;PMS5003;25631;51.516;-0.470;2023-12-20T04:25:19;13;8;
39955;PMS5003;25631;51.516;-0.470;2023-12-20T04:27:56;15;9;
39955;PMS5003;25631;51.516;-0.470;2023-12-20T04:30:32;17;12;
39955;PMS5003;25631;51.516;-0.470;2023-12-20T04:33:09;17;11;
39955;PMS5003;25631;51.516;-0.470;2023-12-20T04:35:45;7;4;
39955;PMS5003;25631;51.516;-0.470;2023-12-20T04:38:22;7;5;
39955;PMS5003;25631;51.516;-0.470;2023-12-20T04:40:58;8;6;
39955;PMS5003;25631;51.516;-0.470;2023-12-20T04:43:34;9;8;
39955;PMS5003;25631;51.516;-0.470;2023-12-20T04:46:11;9;7;
39955;PMS5003;25631;51.516;-0.470;2023-12-20T04:48:47;8;6;
39955;PMS5003;25631;51.516;-0.470;2023-12-20T04:51:23;9;7;
39955;PMS5003;25631;51.516;-0.470;2023-12-20T04:54:00;8;7;
39955;PMS5003;25631;51.516;-0.470;2023-12-20T04:56:37;7;6;
39955;PMS5003;25631;51.516;-0.470;2023-12-20T04:59:13;7;6;
39955;PMS5003;25631;51.516;-0.470;2023-12-20T05:01:50;9;8;
39955;PMS5003;25631;51.516;-0.470;2023-12-20T05:04:26;11;9;
39955;PMS5003;25631;51.516;-0.470;2023-12-20T05:07:03;14;10;
39955;PMS5003;25631;51.516;-0.470;2023-12-20T05:09:39;12;9;
39955;PMS5003;25631;51.516;-0.470;2023-12-20T05:12:16;14;10;
39955;PMS5003;25631;51.516;-0.470;2023-12-20T05:14:52;13;9;
39955;PMS5003;25631;51.516;-0.470;2023-12-20T05:17:28;10;8;
39955;PMS5003;25631;51.516;-0.470;2023-12-20T05:20:05;7;6;
39955;PMS5003;25631;51.516;-0.470;2023-12-20T05:22:43;9;7;
39955;PMS5003;25631;51.516;-0.470;2023-12-20T05:25:19;4;3;
39955;PMS5003;25631;51.516;-0.470;2023-12-20T05:27:56;10;8;
39955;PMS5003;25631;51.516;-0.470;2023-12-20T05:30:32;11;7;
39955;PMS5003;25631;51.516;-0.470;2023-12-20T05:33:08;12;8;
39955;PMS5003;25631;51.516;-0.470;2023-12-20T05:35:45;11;9;
39955;PMS5003;25631;51.516;-0.470;2023-12-20T05:38:21;15;13;
39955;PMS5003;25631;51.516;-0.470;2023-12-20T05:40:58;14;13;
39955;PMS5003;25631;51.516;-0.470;2023-12-20T05:43:35;11;9;
39955;PMS5003;25631;51.516;-0.470;2023-12-20T05:46:11;10;8;
39955;PMS5003;25631;51.516;-0.470;2023-12-20T05:48:47;11;9;
39955;PMS5003;25631;51.516;-0.470;2023-12-20T05:51:24;9;6;
39955;PMS5003;25631;51.516;-0.470;2023-12-20T05:54:00;10;7;
39955;PMS5003;25631;51.516;-0.470;2023-12-20T05:56:36;11;8;
39955;PMS5003;25631;51.516;-0.470;2023-12-20T05:59:13;7;5;
39955;PMS5003;25631;51.516;-0.470;2023-12-20T06:01:49;6;5;
39955;PMS5003;25631;51.516;-0.470;2023-12-20T06:04:26;8;7;
39955;PMS5003;25631;51.516;-0.470;2023-12-20T06:07:02;8;6;
39955;PMS5003;25631;51.516;-0.470;2023-12-20T06:09:38;9;7;
39955;PMS5003;25631;51.516;-0.470;2023-12-20T06:12:15;8;7;
39955;PMS5003;25631;51.516;-0.470;2023-12-20T06:14:52;10;7;
39955;PMS5003;25631;51.516;-0.470;2023-12-20T06:17:28;10;8;
39955;PMS5003;25631;51.516;-0.470;2023-12-20T06:20:06;9;7;
39955;PMS5003;25631;51.516;-0.470;2023-12-20T06:22:44;8;6;
39955;PMS5003;25631;51.516;-0.470;2023-12-20T06:25:20;8;8;
39955;PMS5003;25631;51.516;-0.470;2023-12-20T06:27:56;9;9;
39955;PMS5003;25631;51.516;-0.470;2023-12-20T06:30:33;14;12;
39955;PMS5003;25631;51.516;-0.470;2023-12-20T06:33:10;11;10;
39955;PMS5003;25631;51.516;-0.470;2023-12-20T06:35:46;10;9;
39955;PMS5003;25631;51.516;-0.470;2023-12-20T06:38:23;8;7;
39955;PMS5003;25631;51.516;-0.470;2023-12-20T06:40:59;9;8;
39955;PMS5003;25631;51.516;-0.470;2023-12-20T06:43:35;9;7;
39955;PMS5003;25631;51.516;-0.470;2023-12-20T06:46:12;11;8;
39955;PMS5003;25631;51.516;-0.470;2023-12-20T06:48:49;8;7;
39955;PMS5003;25631;51.516;-0.470;2023-12-20T06:51:26;10;9;
39955;PMS5003;25631;51.516;-0.470;2023-12-20T06:54:02;9;8;
39955;PMS5003;25631;51.516;-0.470;2023-12-20T06:56:39;8;7;
39955;PMS5003;25631;51.516;-0.470;2023-12-20T06:59:15;8;7;
39955;PMS5003;25631;51.516;-0.470;2023-12-20T07:01:52;8;7;
39955;PMS5003;25631;51.516;-0.470;2023-12-20T07:04:28;8;8;
39955;PMS5003;25631;51.516;-0.470;2023-12-20T07:07:05;6;5;
39955;PMS5003;25631;51.516;-0.470;2023-12-20T07:09:41;8;6;
39955;PMS5003;25631;51.516;-0.470;2023-12-20T07:12:18;11;10;
39955;PMS5003;25631;51.516;-0.470;2023-12-20T07:14:54;10;9;
39955;PMS5003;25631;51.516;-0.470;2023-12-20T07:17:30;9;9;
39955;PMS5003;25631;51.516;-0.470;2023-12-20T07:20:08;12;12;
39955;PMS5003;25631;51.516;-0.470;2023-12-20T07:22:45;14;13;
39955;PMS5003;25631;51.516;-0.470;2023-12-20T07:25:22;10;9;
39955;PMS5003;25631;51.516;-0.470;2023-12-20T07:27:58;9;9;
39955;PMS5003;25631;51.516;-0.470;2023-12-20T07:30:35;8;8;
39955;PMS5003;25631;51.516;-0.470;2023-12-20T07:33:11;14;9;
39955;PMS5003;25631;51.516;-0.470;2023-12-20T07:35:47;13;9;
39955;PMS5003;25631;51.516;-0.470;2023-12-20T07:38:24;12;10;
39955;PMS5003;25631;51.516;-0.470;2023-12-20T07:41:00;16;13;
39955;PMS5003;25631;51.516;-0.470;2023-12-20T07:43:36;14;12;
39955;PMS5003;25631;51.516;-0.470;2023-12-20T07:46:13;15;12;
39955;PMS5003;25631;51.516;-0.470;2023-12-20T07:48:49;14;12;
39955;PMS5003;25631;51.516;-0.470;2023-12-20T07:51:26;17;12;
39955;PMS5003;25631;51.516;-0.470;2023-12-20T07:54:02;7;5;
39955;PMS5003;25631;51.516;-0.470;2023-12-20T07:56:39;7;5;
39955;PMS5003;25631;51.516;-0.470;2023-12-20T07:59:15;13;10;
39955;PMS5003;25631;51.516;-0.470;2023-12-20T08:01:52;15;10;
39955;PMS5003;25631;51.516;-0.470;2023-12-20T08:04:28;13;10;
39955;PMS5003;25631;51.516;-0.470;2023-12-20T08:07:04;9;6;
39955;PMS5003;25631;51.516;-0.470;2023-12-20T08:09:41;10;7;
39955;PMS5003;25631;51.516;-0.470;2023-12-20T08:12:17;6;6;
39955;PMS5003;25631;51.516;-0.470;2023-12-20T08:14:54;10;10;
39955;PMS5003;25631;51.516;-0.470;2023-12-20T08:17:30;14;11;
39955;PMS5003;25631;51.516;-0.470;2023-12-20T08:20:07;8;7;
39955;PMS5003;25631;51.516;-0.470;2023-12-20T08:22:44;7;6;
39955;PMS5003;25631;51.516;-0.470;2023-12-20T08:25:22;7;7;
39955;PMS5003;25631;51.516;-0.470;2023-12-20T08:27:59;11;9;
39955;PMS5003;25631;51.516;-0.470;2023-12-20T08:30:36;18;12;
39955;PMS5003;25631;51.516;-0.470;2023-12-20T08:33:13;15;11;
39955;PMS5003;25631;51.516;-0.470;2023-12-20T08:35:49;14;12;
39955;PMS5003;25631;51.516;-0.470;2023-12-20T08:38:25;13;11;
39955;PMS5003;25631;51.516;-0.470;2023-12-20T08:41:02;9;8;
39955;PMS5003;25631;51.516;-0.470;2023-12-20T08:43:39;8;7;
39955;PMS5003;25631;51.516;-0.470;2023-12-20T08:46:15;15;11;
39955;PMS5003;25631;51.516;-0.470;2023-12-20T08:48:52;14;10;
39955;PMS5003;25631;51.516;-0.470;2023-12-20T08:51:28;12;7;
39955;PMS5003;25631;51.516;-0.470;2023-12-20T08:54:04;8;8;
39955;PMS5003;25631;51.516;-0.470;2023-12-20T08:56:41;10;8;
39955;PMS5003;25631;51.516;-0.470;2023-12-20T08:59:17;12;9;
39955;PMS5003;25631;51.516;-0.470;2023-12-20T09:01:53;13;12;
39955;PMS5003;25631;51.516;-0.470;2023-12-20T09:04:30;12;10;
39955;PMS5003;25631;51.516;-0.470;2023-12-20T09:07:06;12;8;
39955;PMS5003;25631;51.516;-0.470;2023-12-20T09:09:42;14;9;
39955;PMS5003;25631;51.516;-0.470;2023-12-20T09:12:19;12;9;
39955;PMS5003;25631;51.516;-0.470;2023-12-20T09:14:56;15;14;
39955;PMS5003;25631;51.516;-0.470;2023-12-20T09:17:32;10;9;
39955;PMS5003;25631;51.516;-0.470;2023-12-20T09:20:09;6;4;
39955;PMS5003;25631;51.516;-0.470;2023-12-20T09:22:46;5;4;
39955;PMS5003;25631;51.516;-0.470;2023-12-20T09:25:23;5;4;
39955;PMS5003;25631;51.516;-0.470;2023-12-20T09:28:00;22;19;
39955;PMS5003;25631;51.516;-0.470;2023-12-20T09:30:36;21;20;
39955;PMS5003;25631;51.516;-0.470;2023-12-20T09:33:13;22;20;
39955;PMS5003;25631;51.516;-0.470;2023-12-20T09:35:49;17;14;
39955;PMS5003;25631;51.516;-0.470;2023-12-20T09:38:25;17;15;
39955;PMS5003;25631;51.516;-0.470;2023-12-20T09:41:02;21;17;
39955;PMS5003;25631;51.516;-0.470;2023-12-20T09:43:38;23;20;
39955;PMS5003;25631;51.516;-0.470;2023-12-20T09:46:17;25;20;
39955;PMS5003;25631;51.516;-0.470;2023-12-20T09:49:00;16;14;
39955;PMS5003;25631;51.516;-0.470;2023-12-20T09:51:37;16;14;
39955;PMS5003;25631;51.516;-0.470;2023-12-20T09:54:13;19;16;
39955;PMS5003;25631;51.516;-0.470;2023-12-20T09:56:51;19;16;
39955;PMS5003;25631;51.516;-0.470;2023-12-20T09:59:27;22;19;
39955;PMS5003;25631;51.516;-0.470;2023-12-20T10:02:04;13;11;
39955;PMS5003;25631;51.516;-0.470;2023-12-20T10:04:48;14;11;
39955;PMS5003;25631;51.516;-0.470;2023-12-20T10:07:24;17;14;
39955;PMS5003;25631;51.516;-0.470;2023-12-20T10:10:00;13;11;
39955;PMS5003;25631;51.516;-0.470;2023-12-20T10:12:38;12;9;
39955;PMS5003;25631;51.516;-0.470;2023-12-20T10:15:14;16;15;
39955;PMS5003;25631;51.516;-0.470;2023-12-20T10:17:50;15;14;
39955;PMS5003;25631;51.516;-0.470;2023-12-20T10:20:27;15;14;
39955;PMS5003;25631;51.516;-0.470;2023-12-20T10:23:03;7;7;
39955;PMS5003;25631;51.516;-0.470;2023-12-20T10:25:40;8;7;
39955;PMS5003;25631;51.516;-0.470;2023-12-20T10:28:16;32;29;
39955;PMS5003;25631;51.516;-0.470;2023-12-20T10:30:53;23;20;
39955;PMS5003;25631;51.516;-0.470;2023-12-20T10:33:30;20;17;
39955;PMS5003;25631;51.516;-0.470;2023-12-20T10:36:07;6;4;
39955;PMS5003;25631;51.516;-0.470;2023-12-20T10:38:44;8;5;
39955;PMS5003;25631;51.516;-0.470;2023-12-20T10:41:25;17;16;
39955;PMS5003;25631;51.516;-0.470;2023-12-20T10:44:03;26;24;
39955;PMS5003;25631;51.516;-0.470;2023-12-20T10:46:40;24;22;
39955;PMS5003;25631;51.516;-0.470;2023-12-20T10:49:17;15;13;
39955;PMS5003;25631;51.516;-0.470;2023-12-20T10:51:55;16;15;
39955;PMS5003;25631;51.516;-0.470;2023-12-20T10:54:35;17;16;
39955;PMS5003;25631;51.516;-0.470;2023-12-20T10:57:11;8;6;
39955;PMS5003;25631;51.516;-0.470;2023-12-20T10:59:49;8;5;
39955;PMS5003;25631;51.516;-0.470;2023-12-20T11:02:30;10;8;
39955;PMS5003;25631;51.516;-0.470;2023-12-20T11:05:12;11;9;
39955;PMS5003;25631;51.516;-0.470;2023-12-20T11:07:58;10;8;
39955;PMS5003;25631;51.516;-0.470;2023-12-20T11:10:40;8;5;
39955;PMS5003;25631;51.516;-0.470;2023-12-20T11:13:23;7;5;
39955;PMS5003;25631;51.516;-0.470;2023-12-20T11:16:07;13;7;
39955;PMS5003;25631;51.516;-0.470;2023-12-20T11:18:44;13;6;
39955;PMS5003;25631;51.516;-0.470;2023-12-20T11:21:21;15;8;
39955;PMS5003;25631;51.516;-0.470;2023-12-20T11:23:57;14;8;
39955;PMS5003;25631;51.516;-0.470;2023-12-20T11:26:35;13;7;
39955;PMS5003;25631;51.516;-0.470;2023-12-20T11:29:45;14;11;
39955;PMS5003;25631;51.516;-0.470;2023-12-20T11:32:28;12;10;
39955;PMS5003;25631;51.516;-0.470;2023-12-20T11:35:17;12;9;
39955;PMS5003;25631;51.516;-0.470;2023-12-20T11:37:55;12;9;
39955;PMS5003;25631;51.516;-0.470;2023-12-20T11:40:34;10;8;
39955;PMS5003;25631;51.516;-0.470;2023-12-20T11:43:12;17;10;
39955;PMS5003;25631;51.516;-0.470;2023-12-20T11:46:05;11;8;
39955;PMS5003;25631;51.516;-0.470;2023-12-20T11:48:43;12;8;
39955;PMS5003;25631;51.516;-0.470;2023-12-20T11:51:21;12;11;
39955;PMS5003;25631;51.516;-0.470;2023-12-20T11:53:57;10;9;
39955;PMS5003;25631;51.516;-0.470;2023-12-20T11:56:35;12;8;
39955;PMS5003;25631;51.516;-0.470;2023-12-20T11:59:11;12;9;
39955;PMS5003;25631;51.516;-0.470;2023-12-20T12:01:48;12;9;
39955;PMS5003;25631;51.516;-0.470;2023-12-20T12:04:25;11;8;
39955;PMS5003;25631;51.516;-0.470;2023-12-20T12:07:02;12;9;
39955;PMS5003;25631;51.516;-0.470;2023-12-20T12:09:38;10;6;
39955;PMS5003;25631;51.516;-0.470;2023-12-20T12:12:14;8;5;
39955;PMS5003;25631;51.516;-0.470;2023-12-20T12:14:51;10;6;
39955;PMS5003;25631;51.516;-0.470;2023-12-20T12:17:27;24;22;
39955;PMS5003;25631;51.516;-0.470;2023-12-20T12:20:04;24;22;
39955;PMS5003;25631;51.516;-0.470;2023-12-20T12:22:42;9;5;
39955;PMS5003;25631;51.516;-0.470;2023-12-20T12:25:18;8;5;
39955;PMS5003;25631;51.516;-0.470;2023-12-20T12:27:57;6;4;
39955;PMS5003;25631;51.516;-0.470;2023-12-20T12:30:34;9;5;
39955;PMS5003;25631;51.516;-0.470;2023-12-20T12:33:10;8;5;
39955;PMS5003;25631;51.516;-0.470;2023-12-20T12:35:48;8;4;
39955;PMS5003;25631;51.516;-0.470;2023-12-20T12:38:24;10;9;
39955;PMS5003;25631;51.516;-0.470;2023-12-20T12:41:00;9;7;
39955;PMS5003;25631;51.516;-0.470;2023-12-20T12:43:37;12;6;
39955;PMS5003;25631;51.516;-0.470;2023-12-20T12:46:14;7;4;
39955;PMS5003;25631;51.516;-0.470;2023-12-20T12:48:50;9;5;
39955;PMS5003;25631;51.516;-0.470;2023-12-20T12:51:27;4;3;
39955;PMS5003;25631;51.516;-0.470;2023-12-20T12:54:03;4;2;
39955;PMS5003;25631;51.516;-0.470;2023-12-20T12:56:40;5;4;
39955;PMS5003;25631;51.516;-0.470;2023-12-20T12:59:16;5;4;
39955;PMS5003;25631;51.516;-0.470;2023-12-20T13:01:52;10;8;
39955;PMS5003;25631;51.516;-0.470;2023-12-20T13:04:29;9;7;
39955;PMS5003;25631;51.516;-0.470;2023-12-20T13:07:05;9;6;
39955;PMS5003;25631;51.516;-0.470;2023-12-20T13:09:42;7;4;
39955;PMS5003;25631;51.516;-0.470;2023-12-20T13:12:18;6;4;
39955;PMS5003;25631;51.516;-0.470;2023-12-20T13:14:54;6;4;
39955;PMS5003;25631;51.516;-0.470;2023-12-20T13:17:31;10;8;
39955;PMS5003;25631;51.516;-0.470;2023-12-20T13:20:08;8;7;
39955;PMS5003;25631;51.516;-0.470;2023-12-20T13:22:44;6;2;
39955;PMS5003;25631;51.516;-0.470;2023-12-20T13:25:21;5;2;
39955;PMS5003;25631;51.516;-0.470;2023-12-20T13:27:57;5;2;
39955;PMS5003;25631;51.516;-0.470;2023-12-20T13:30:34;7;4;
39955;PMS5003;25631;51.516;-0.470;2023-12-20T13:33:10;8;4;
39955;PMS5003;25631;51.516;-0.470;2023-12-20T13:35:47;6;5;
39955;PMS5003;25631;51.516;-0.470;2023-12-20T13:38:23;7;6;
39955;PMS5003;25631;51.516;-0.470;2023-12-20T13:41:00;7;5;
39955;PMS5003;25631;51.516;-0.470;2023-12-20T13:43:36;6;4;
39955;PMS5003;25631;51.516;-0.470;2023-12-20T13:46:13;7;5;
39955;PMS5003;25631;51.516;-0.470;2023-12-20T13:48:49;5;4;
39955;PMS5003;25631;51.516;-0.470;2023-12-20T13:51:25;11;9;
39955;PMS5003;25631;51.516;-0.470;2023-12-20T13:54:02;11;9;
39955;PMS5003;25631;51.516;-0.470;2023-12-20T13:56:38;9;5;
39955;PMS5003;25631;51.516;-0.470;2023-12-20T13:59:14;10;6;
39955;PMS5003;25631;51.516;-0.470;2023-12-20T14:01:51;9;7;
39955;PMS5003;25631;51.516;-0.470;2023-12-20T14:04:27;12;9;
39955;PMS5003;25631;51.516;-0.470;2023-12-20T14:07:04;13;9;
39955;PMS5003;25631;51.516;-0.470;2023-12-20T14:09:40;11;10;
39955;PMS5003;25631;51.516;-0.470;2023-12-20T14:12:17;10;9;
39955;PMS5003;25631;51.516;-0.470;2023-12-20T14:14:53;9;9;
39955;PMS5003;25631;51.516;-0.470;2023-12-20T14:17:29;10;4;
39955;PMS5003;25631;51.516;-0.470;2023-12-20T14:20:06;11;5;
39955;PMS5003;25631;51.516;-0.470;2023-12-20T14:22:44;8;4;
39955;PMS5003;25631;51.516;-0.470;2023-12-20T14:25:20;16;9;
39955;PMS5003;25631;51.516;-0.470;2023-12-20T14:27:57;15;8;
39955;PMS5003;25631;51.516;-0.470;2023-12-20T14:30:33;7;5;
39955;PMS5003;25631;51.516;-0.470;2023-12-20T14:33:10;8;6;
39955;PMS5003;25631;51.516;-0.470;2023-12-20T14:35:46;8;5;
39955;PMS5003;25631;51.516;-0.470;2023-12-20T14:38:23;9;7;
39955;PMS5003;25631;51.516;-0.470;2023-12-20T14:40:59;6;5;
39955;PMS5003;25631;51.516;-0.470;2023-12-20T14:43:35;11;8;
39955;PMS5003;25631;51.516;-0.470;2023-12-20T14:46:12;11;8;
39955;PMS5003;25631;51.516;-0.470;2023-12-20T14:48:49;13;8;
39955;PMS5003;25631;51.516;-0.470;2023-12-20T14:51:25;14;10;
39955;PMS5003;25631;51.516;-0.470;2023-12-20T14:54:02;11;8;
39955;PMS5003;25631;51.516;-0.470;2023-12-20T14:56:38;8;7;
39955;PMS5003;25631;51.516;-0.470;2023-12-20T14:59:15;9;8;
39955;PMS5003;25631;51.516;-0.470;2023-12-20T15:01:51;10;9;
39955;PMS5003;25631;51.516;-0.470;2023-12-20T15:04:28;8;6;
39955;PMS5003;25631;51.516;-0.470;2023-12-20T15:07:05;9;7;
39955;PMS5003;25631;51.516;-0.470;2023-12-20T15:09:41;10;8;
39955;PMS5003;25631;51.516;-0.470;2023-12-20T15:12:17;10;8;
39955;PMS5003;25631;51.516;-0.470;2023-12-20T15:14:54;12;9;
39955;PMS5003;25631;51.516;-0.470;2023-12-20T15:17:30;9;6;
39955;PMS5003;25631;51.516;-0.470;2023-12-20T15:20:07;9;5;
39955;PMS5003;25631;51.516;-0.470;2023-12-20T15:22:44;8;4;
39955;PMS5003;25631;51.516;-0.470;2023-12-20T15:25:21;6;5;
39955;PMS5003;25631;51.516;-0.470;2023-12-20T15:27:57;7;5;
39955;PMS5003;25631;51.516;-0.470;2023-12-20T15:30:33;6;3;
39955;PMS5003;25631;51.516;-0.470;2023-12-20T15:33:10;9;5;
39955;PMS5003;25631;51.516;-0.470;2023-12-20T15:35:46;6;4;
39955;PMS5003;25631;51.516;-0.470;2023-12-20T15:38:23;5;5;
39955;PMS5003;25631;51.516;-0.470;2023-12-20T15:40:59;13;10;
39955;PMS5003;25631;51.516;-0.470;2023-12-20T15:43:36;13;9;
39955;PMS5003;25631;51.516;-0.470;2023-12-20T15:46:12;5;5;
39955;PMS5003;25631;51.516;-0.470;2023-12-20T15:48:49;6;5;
39955;PMS5003;25631;51.516;-0.470;2023-12-20T15:51:25;7;6;
39955;PMS5003;25631;51.516;-0.470;2023-12-20T15:54:02;8;6;
39955;PMS5003;25631;51.516;-0.470;2023-12-20T15:56:38;7;5;
39955;PMS5003;25631;51.516;-0.470;2023-12-20T15:59:14;10;6;
39955;PMS5003;25631;51.516;-0.470;2023-12-20T16:01:51;8;5;
39955;PMS5003;25631;51.516;-0.470;2023-12-20T16:04:27;11;9;
39955;PMS5003;25631;51.516;-0.470;2023-12-20T16:07:03;18;14;
39955;PMS5003;25631;51.516;-0.470;2023-12-20T16:09:40;18;14;
39955;PMS5003;25631;51.516;-0.470;2023-12-20T16:12:16;9;5;
39955;PMS5003;25631;51.516;-0.470;2023-12-20T16:14:52;8;5;
39955;PMS5003;25631;51.516;-0.470;2023-12-20T16:17:29;13;9;
39955;PMS5003;25631;51.516;-0.470;2023-12-20T16:20:06;10;9;
39955;PMS5003;25631;51.516;-0.470;2023-12-20T16:22:43;8;8;
39955;PMS5003;25631;51.516;-0.470;2023-12-20T16:25:20;8;7;
39955;PMS5003;25631;51.516;-0.470;2023-12-20T16:27:56;7;7;
39955;PMS5003;25631;51.516;-0.470;2023-12-20T16:30:32;6;5;
39955;PMS5003;25631;51.516;-0.470;2023-12-20T16:33:09;8;6;
39955;PMS5003;25631;51.516;-0.470;2023-12-20T16:35:47;12;7;
39955;PMS5003;25631;51.516;-0.470;2023-12-20T16:38:23;9;5;
39955;PMS5003;25631;51.516;-0.470;2023-12-20T16:41:00;11;5;
39955;PMS5003;25631;51.516;-0.470;2023-12-20T16:43:38;7;5;
39955;PMS5003;25631;51.516;-0.470;2023-12-20T16:46:14;11;10;
39955;PMS5003;25631;51.516;-0.470;2023-12-20T16:48:50;7;6;
39955;PMS5003;25631;51.516;-0.470;2023-12-20T16:51:27;14;9;
39955;PMS5003;25631;51.516;-0.470;2023-12-20T16:54:03;18;12;
39955;PMS5003;25631;51.516;-0.470;2023-12-20T16:56:39;18;12;
39955;PMS5003;25631;51.516;-0.470;2023-12-20T16:59:16;7;7;
39955;PMS5003;25631;51.516;-0.470;2023-12-20T17:01:52;6;6;
39955;PMS5003;25631;51.516;-0.470;2023-12-20T17:04:28;6;6;
39955;PMS5003;25631;51.516;-0.470;2023-12-20T17:07:05;8;6;
39955;PMS5003;25631;51.516;-0.470;2023-12-20T17:09:41;8;6;
39955;PMS5003;25631;51.516;-0.470;2023-12-20T17:12:17;6;5;
39955;PMS5003;25631;51.516;-0.470;2023-12-20T17:14:54;6;5;
39955;PMS5003;25631;51.516;-0.470;2023-12-20T17:17:30;5;4;
39955;PMS5003;25631;51.516;-0.470;2023-12-20T17:20:07;28;27;